York, PA (17404)

3:01 AM EST on March 06, 2015 (GMT -0500)
Brandywine Woods-Cousler Park | Change Station
CLOSE
Current Station
Personal Weather Station
Location: York, PA
Elevation: 528 ft
Nearby Weather Stations

Elev 528 ft 40.00 °N, 76.76 °W | Updated 4 minutes ago

Clear
Clear
9.5 °F
Feels Like 10 °F
N
0.0
Wind Variable Wind from SE

Today
High -- | Low -- °F
--% Chance of Precip.
Yesterday
High -- | Low -- °F
Precip. -- in
6:33 AM 6:04 PM
Full, 100% visible
Pressure 30.46 in
Visibility 10.0 miles
Clouds Clear
Windchill 10 °F
Dew Point 3 °F
Humidity 75%
Rainfall in
Snow Depth Not available.
UV 0 out of 12
Pollen .60 out of 12
Air Quality Not available.
Flu Activity Not available.
METAR KTHV 060753Z AUTO 32005KT 10SM CLR M17/M20 A3046 RMK AO2 SLPNO T11671200

More Conditions Fewer Conditions

Pressure 30.46 in
Visibility 10.0 miles
Clouds Clear
Windchill 10 °F
Dew Point 3 °F
Humidity 75%
Rainfall in
Snow Depth Not available.
UV 0 out of 12
Pollen .60 out of 12
Air Quality Not available.
Flu Activity Not available.
METAR KTHV 060753Z AUTO 32005KT 10SM CLR M17/M20 A3046 RMK AO2 SLPNO T11671200

More Conditions Fewer Conditions

10-Day Weather Forecast

Almanac

Astronomy

Mar. 06, 2015 Rise Set
Actual Time
Civil Twilight
Nautical Twilight
Astronomical Twilight
Moon
Length of Visible Light
Length of Day
Tomorrow will be .
, % of the Moon is Illuminated

Today's Extremes

State Highs State Lows

Community

WunderPhotos

Upload Photos

1,803,199 photos uploaded!

WunderBlogs® & News

Nearby

Air Quality

  Air Quality AQ Index Pollutant
Not available.

Snow Depth

Station Depth Elevation

Earthquake Activity

City Distance Mag. Time & Date
Minimum magnitude displayed is 2.5.

Coastal Water Temperatures

Place Temperature

Nearby Weather Stations